createdAt,value
2022-11-26T00:04:55.969Z,1020.68
2022-11-26T00:11:18.993Z,1020.72
2022-11-26T00:17:39.001Z,1020.82
2022-11-26T00:24:01.992Z,1020.95
2022-11-26T00:30:22.012Z,1021
2022-11-26T00:36:45.040Z,1021.06
2022-11-26T00:43:04.994Z,1021.18
2022-11-26T00:49:27.980Z,1021.28
2022-11-26T00:55:48.068Z,1021.34
2022-11-26T01:02:11.114Z,1021.38
2022-11-26T01:08:30.989Z,1021.41
2022-11-26T01:14:54.010Z,1021.45
2022-11-26T01:21:14.016Z,1021.57
2022-11-26T01:27:37.004Z,1021.65
2022-11-26T01:33:57.006Z,1021.73
2022-11-26T01:40:19.986Z,1021.77
2022-11-26T01:46:40.005Z,1021.83
2022-11-26T01:53:02.997Z,1021.85
2022-11-26T01:59:22.997Z,1021.9
2022-11-26T02:05:45.979Z,1021.92
2022-11-26T02:12:06.002Z,1021.94
2022-11-26T02:18:29.043Z,1021.98
2022-11-26T02:24:49.007Z,1021.98
2022-11-26T02:31:12.054Z,1022.02
2022-11-26T02:37:32.053Z,1022
2022-11-26T02:43:54.994Z,1022
2022-11-26T02:50:15.020Z,1021.98
2022-11-26T02:56:38.027Z,1021.92
2022-11-26T03:02:58.030Z,1021.9
2022-11-26T03:09:21.022Z,1021.92
2022-11-26T03:15:40.984Z,1021.88
2022-11-26T03:22:03.993Z,1021.88
2022-11-26T03:28:24.033Z,1021.88
2022-11-26T03:34:47.013Z,1021.94
2022-11-26T03:41:06.990Z,1021.96
2022-11-26T03:47:30.025Z,1021.98
2022-11-26T03:53:50.002Z,1022.06
2022-11-26T04:00:13.051Z,1022.14
2022-11-26T04:06:33.029Z,1022.2
2022-11-26T04:29:38.993Z,1022.57
2022-11-26T04:36:01.969Z,1022.63
2022-11-26T04:42:22.022Z,1022.73
2022-11-26T04:48:44.994Z,1022.82
2022-11-26T04:55:05.039Z,1022.9
2022-11-26T05:01:28.028Z,1022.98
2022-11-26T05:07:48.040Z,1023.06
2022-11-26T05:14:11.046Z,1023.14
2022-11-26T05:20:30.972Z,1023.25
2022-11-26T05:26:57.052Z,1023.35
2022-11-26T05:33:14.026Z,1023.39
2022-11-26T05:39:37.051Z,1023.5
2022-11-26T05:45:57.074Z,1023.5
2022-11-26T05:52:19.989Z,1023.56
2022-11-26T05:58:40.000Z,1023.62
2022-11-26T06:05:03.004Z,1023.64
2022-11-26T06:11:22.998Z,1023.7
2022-11-26T06:17:46.007Z,1023.75
2022-11-26T06:24:06.013Z,1023.72
2022-11-26T06:30:29.058Z,1023.73
2022-11-26T06:36:48.970Z,1023.81
2022-11-26T06:43:12.013Z,1023.85
2022-11-26T06:49:32.032Z,1023.87
2022-11-26T06:55:54.990Z,1023.89
2022-11-26T07:02:15.180Z,1023.95
2022-11-26T07:08:38.001Z,1024.05
2022-11-26T07:14:58.020Z,1024.11
2022-11-26T07:21:21.045Z,1024.09
2022-11-26T07:27:41.006Z,1024.26
2022-11-26T07:34:04.032Z,1024.46
2022-11-26T07:40:24.042Z,1024.56
2022-11-26T07:46:47.029Z,1024.59
2022-11-26T07:53:06.990Z,1024.67
2022-11-26T07:59:30.038Z,1024.77
2022-11-26T08:05:50.037Z,1024.75
2022-11-26T08:12:13.000Z,1024.73
2022-11-26T08:18:33.030Z,1024.71
2022-11-26T08:24:56.129Z,1024.75
2022-11-26T08:31:16.057Z,1024.69
2022-11-26T08:37:39.009Z,1024.65
2022-11-26T08:44:07.678Z,1024.61
2022-11-26T08:50:22.003Z,1024.67
2022-11-26T08:56:42.088Z,1024.73
2022-11-26T09:03:05.034Z,1024.77
2022-11-26T09:09:25.036Z,1024.81
2022-11-26T09:15:48.031Z,1024.77
2022-11-26T09:33:06.030Z,1024.85
2022-11-26T09:39:28.993Z,1024.97
2022-11-26T09:45:49.106Z,1025.03
2022-11-26T09:52:12.027Z,1025.06
2022-11-26T09:58:31.970Z,1025.06
2022-11-26T10:04:54.990Z,1025.08
2022-11-26T10:11:15.024Z,1025.14
2022-11-26T10:17:38.001Z,1025.14
2022-11-26T10:23:57.989Z,1025.16
2022-11-26T10:30:21.119Z,1025.14
2022-11-26T10:36:40.986Z,1025.14
2022-11-26T10:43:04.007Z,1025.1
2022-11-26T10:49:24.015Z,1025.16
2022-11-26T10:55:46.988Z,1025.16
2022-11-26T11:02:07.005Z,1025.14
2022-11-26T11:08:30.038Z,1025.16
2022-11-26T11:14:50.490Z,1025.14
2022-11-26T11:21:13.013Z,1025.14
2022-11-26T11:27:33.040Z,1025.1
2022-11-26T11:33:56.000Z,1025.08
2022-11-26T11:40:17.429Z,1025.06
2022-11-26T11:46:39.035Z,1025.01
2022-11-26T11:52:59.012Z,1025.03
2022-11-26T11:59:21.990Z,1024.95
2022-11-26T12:05:42.055Z,1024.91
2022-11-26T12:12:04.990Z,1024.87
2022-11-26T12:18:25.001Z,1024.83
2022-11-26T12:24:48.011Z,1024.81
2022-11-26T12:31:07.991Z,1024.81
2022-11-26T12:37:31.037Z,1024.89
2022-11-26T12:43:51.009Z,1024.93
2022-11-26T12:50:13.990Z,1024.89
2022-11-26T12:56:34.004Z,1024.89
2022-11-26T13:02:57.060Z,1024.91
2022-11-26T13:09:17.013Z,1024.93
2022-11-26T13:15:39.975Z,1024.95
2022-11-26T13:22:00.005Z,1024.95
2022-11-26T13:28:22.986Z,1024.93
2022-11-26T13:34:42.982Z,1024.85
2022-11-26T13:41:06.016Z,1024.81
2022-11-26T13:47:25.973Z,1024.81
2022-11-26T13:53:48.994Z,1024.75
2022-11-26T14:00:09.028Z,1024.63
2022-11-26T14:06:32.009Z,1024.52
2022-11-26T14:12:52.119Z,1024.42
2022-11-26T14:19:15.042Z,1024.38
2022-11-26T14:25:35.088Z,1024.32
2022-11-26T14:31:58.104Z,1024.28
2022-11-26T14:55:03.508Z,1024.18
2022-11-26T15:01:23.971Z,1024.11
2022-11-26T15:07:47.063Z,1024.05
2022-11-26T15:14:07.053Z,1024.03
2022-11-26T15:20:30.002Z,1024.11
2022-11-26T15:26:49.983Z,1024.18
2022-11-26T15:33:13.035Z,1024.18
2022-11-26T15:39:33.069Z,1024.16
2022-11-26T15:45:56.129Z,1024.12
2022-11-26T15:52:16.047Z,1024.09
2022-11-26T15:58:39.023Z,1024.14
2022-11-26T16:04:58.981Z,1024.16
2022-11-26T16:11:22.005Z,1024.14
2022-11-26T16:17:41.986Z,1024.14
2022-11-26T16:24:05.138Z,1024.16
2022-11-26T16:30:25.032Z,1024.2
2022-11-26T16:36:48.209Z,1024.16
2022-11-26T16:43:08.009Z,1024.18
2022-11-26T16:49:31.032Z,1024.14
2022-11-26T16:55:50.996Z,1024.09
2022-11-26T17:02:14.121Z,1024.12
2022-11-26T17:08:34.065Z,1024.16
2022-11-26T17:14:57.000Z,1024.2
2022-11-26T17:21:16.987Z,1024.24
2022-11-26T17:27:40.032Z,1024.24
2022-11-26T17:33:59.982Z,1024.24
2022-11-26T17:40:23.014Z,1024.24
2022-11-26T17:47:01.268Z,1024.24
2022-11-26T17:53:05.983Z,1024.24
2022-11-26T17:59:26.004Z,1024.18
2022-11-26T18:05:49.039Z,1024.14
2022-11-26T18:12:09.003Z,1024.12
2022-11-26T18:18:32.024Z,1024.01
2022-11-26T18:24:56.066Z,1023.95
2022-11-26T18:31:15.099Z,1023.89
2022-11-26T18:37:34.991Z,1023.87
2022-11-26T18:43:58.053Z,1023.83
2022-11-26T18:50:17.970Z,1023.75
2022-11-26T18:56:40.989Z,1023.73
2022-11-26T19:03:01.027Z,1023.75
2022-11-26T19:09:24.043Z,1023.75
2022-11-26T19:15:44.020Z,1023.77
2022-11-26T19:22:07.004Z,1023.77
2022-11-26T19:28:27.005Z,1023.75
2022-11-26T19:34:50.002Z,1023.66
2022-11-26T19:41:09.996Z,1023.58
2022-11-26T20:03:40.009Z,1023.41
2022-11-26T20:10:02.971Z,1023.52
2022-11-26T20:16:23.088Z,1023.56
2022-11-26T20:22:46.033Z,1023.6
2022-11-26T20:29:05.982Z,1023.66
2022-11-26T20:35:28.993Z,1023.7
2022-11-26T20:41:49.046Z,1023.72
2022-11-26T20:48:12.016Z,1023.7
2022-11-26T20:54:32.005Z,1023.73
2022-11-26T21:00:55.139Z,1023.81
2022-11-26T21:07:15.059Z,1023.93
2022-11-26T21:13:37.988Z,1023.93
2022-11-26T21:19:58.019Z,1023.93
2022-11-26T21:26:20.999Z,1023.91
2022-11-26T21:32:41.022Z,1023.87
2022-11-26T21:39:04.019Z,1023.87
2022-11-26T21:45:23.989Z,1023.87
2022-11-26T21:51:46.987Z,1023.85
2022-11-26T21:58:07.039Z,1023.77
2022-11-26T22:04:29.967Z,1023.64
2022-11-26T22:10:49.989Z,1023.52
2022-11-26T22:17:13.023Z,1023.29
2022-11-26T22:23:32.984Z,1023.18
2022-11-26T22:29:56.070Z,1023.08
2022-11-26T22:36:16.034Z,1023.02
2022-11-26T22:42:39.022Z,1022.96
2022-11-26T22:48:59.004Z,1022.88
2022-11-26T22:55:22.008Z,1022.84
2022-11-26T23:19:36.025Z,1022.57
2022-11-26T23:25:55.973Z,1022.53
2022-11-26T23:32:19.000Z,1022.43
2022-11-26T23:38:39.045Z,1022.32
2022-11-26T23:45:01.984Z,1022.28
2022-11-26T23:51:21.989Z,1022.16
2022-11-26T23:57:45.024Z,1022.04
